Time;durP1;ratioP1;P1;durP2;ratioP2;P2;SDS_P1;SDS_P2;PMS_P1;PMS_P2;Temp;Humidity;BMP_temperature;BMP_pressure;BME280_temperature;BME280_humidity;BME280_pressure;Samples;Min_cycle;Max_cycle;Signal;HPM_P1;HPM_P2
2023/03/05 00:02:12;;;;;;;9.38;5.20;;;;;;;3.50;80.63;100948.38;6276260;22;20223;-70
2023/03/05 00:04:41;;;;;;;13.77;4.47;;;;;;;3.42;82.58;100948.31;6275561;22;20170;-70
2023/03/05 00:07:11;;;;;;;13.32;3.78;;;;;;;3.37;85.36;100943.44;6248483;22;20192;-69
2023/03/05 00:09:40;;;;;;;9.10;3.53;;;;;;;3.32;86.88;100936.84;6248614;22;20499;-70
2023/03/05 00:12:11;;;;;;;17.45;4.72;;;;;;;3.21;88.99;100931.72;6248811;22;20247;-70
2023/03/05 00:14:40;;;;;;;8.85;4.63;;;;;;;3.13;90.67;100929.00;6248374;22;20250;-70
2023/03/05 00:17:09;;;;;;;15.05;4.75;;;;;;;2.99;92.52;100923.19;6248398;22;20200;-70
2023/03/05 00:19:50;;;;;;;5.80;3.33;;;;;;;2.96;93.84;100926.16;6277463;22;20160;-70
2023/03/05 00:22:19;;;;;;;13.00;4.13;;;;;;;2.89;95.67;100922.44;6268674;22;20203;-71
2023/03/05 00:24:51;;;;;;;13.63;4.68;;;;;;;2.92;96.52;100910.59;6276011;22;20171;-70
2023/03/05 00:27:21;;;;;;;5.03;3.13;;;;;;;2.90;96.88;100910.75;6277715;22;20242;-71
2023/03/05 00:29:50;;;;;;;8.50;3.20;;;;;;;2.97;97.30;100903.78;6275795;22;20164;-71
2023/03/05 00:32:20;;;;;;;16.65;4.35;;;;;;;2.94;97.19;100896.09;6277519;22;20167;-70
2023/03/05 00:34:49;;;;;;;12.10;3.67;;;;;;;2.88;97.41;100894.00;6275850;22;20198;-70
2023/03/05 00:37:18;;;;;;;10.80;3.25;;;;;;;2.91;97.03;100896.38;6275994;22;20199;-72
2023/03/05 00:39:47;;;;;;;23.10;3.40;;;;;;;2.98;96.98;100889.44;6276432;22;20174;-72
2023/03/05 00:42:22;;;;;;;14.00;3.75;;;;;;;2.98;96.49;100891.25;6278142;22;20159;-68
2023/03/05 00:44:51;;;;;;;11.18;3.35;;;;;;;2.98;95.92;100884.09;6276095;22;20504;-72
2023/03/05 00:47:20;;;;;;;9.07;3.10;;;;;;;2.97;95.41;100881.56;6276299;22;20183;-72
2023/03/05 00:49:49;;;;;;;10.15;3.45;;;;;;;2.98;94.82;100883.25;6276173;22;20221;-72
2023/03/05 00:52:19;;;;;;;11.05;3.67;;;;;;;2.94;94.61;100879.22;6277706;22;20164;-71
2023/03/05 00:54:48;;;;;;;17.80;3.95;;;;;;;2.79;94.75;100873.56;6276182;22;20178;-71
2023/03/05 00:57:17;;;;;;;9.77;3.05;;;;;;;3.00;94.61;100868.72;6276629;22;20187;-69
2023/03/05 00:59:48;;;;;;;10.77;4.40;;;;;;;2.97;93.33;100863.69;6279580;22;20160;-71
2023/03/05 01:02:17;;;;;;;7.13;2.83;;;;;;;3.00;93.07;100858.03;6276971;22;20186;-70
2023/03/05 01:04:46;;;;;;;4.93;3.35;;;;;;;3.08;91.60;100856.44;6277720;22;20206;-70
2023/03/05 01:07:16;;;;;;;8.35;2.90;;;;;;;2.93;91.16;100858.81;6275679;22;20192;-72
2023/03/05 01:09:45;;;;;;;8.50;2.78;;;;;;;3.02;91.00;100853.38;6275676;22;20247;-72
2023/03/05 01:12:14;;;;;;;14.05;3.38;;;;;;;2.85;88.23;100853.41;6275570;22;20171;-70
2023/03/05 01:14:43;;;;;;;15.82;4.07;;;;;;;2.81;87.73;100852.84;6276861;22;20686;-71
2023/03/05 01:17:13;;;;;;;11.77;3.42;;;;;;;2.80;87.38;100851.19;6275793;22;20211;-69
2023/03/05 01:19:42;;;;;;;11.32;2.78;;;;;;;2.72;85.85;100848.41;6275866;22;20156;-69
2023/03/05 01:22:41;;;;;;;10.05;3.25;;;;;;;2.68;85.35;100854.22;6277585;22;20163;-70
2023/03/05 01:25:12;;;;;;;6.45;2.58;;;;;;;2.60;82.17;100841.63;6250369;22;20167;-70
2023/03/05 01:27:41;;;;;;;15.32;4.00;;;;;;;2.54;81.79;100847.56;6249720;22;20230;-70
2023/03/05 01:30:12;;;;;;;3.67;1.75;;;;;;;2.51;80.77;100831.88;6249994;22;20176;-70
2023/03/05 01:32:43;;;;;;;10.38;2.10;;;;;;;2.60;81.17;100836.28;6250272;22;20240;-71
2023/03/05 01:35:18;;;;;;;7.65;2.60;;;;;;;2.61;80.50;100835.31;6249843;22;20630;-70
2023/03/05 01:37:50;;;;;;;8.35;4.03;;;;;;;2.57;79.79;100836.59;6249364;22;20187;-69
2023/03/05 01:40:24;;;;;;;12.32;2.10;;;;;;;2.55;78.25;100838.59;6277379;22;20205;-73
2023/03/05 01:42:59;;;;;;;5.40;3.55;;;;;;;2.41;77.89;100839.09;6250294;22;20233;-71
2023/03/05 01:45:32;;;;;;;5.95;2.35;;;;;;;2.43;77.77;100823.75;6249849;22;20166;-71
2023/03/05 01:48:02;;;;;;;5.00;1.75;;;;;;;2.37;77.16;100827.88;6249543;22;20513;-70
2023/03/05 01:50:32;;;;;;;5.22;1.67;;;;;;;2.27;76.61;100823.59;6249628;22;20168;-70
2023/03/05 01:53:04;;;;;;;6.43;2.05;;;;;;;2.42;76.20;100827.44;6249757;22;20170;-72
2023/03/05 01:55:36;;;;;;;6.32;1.65;;;;;;;2.30;75.45;100828.63;6249847;22;20516;-70
2023/03/05 01:58:08;;;;;;;12.38;1.90;;;;;;;2.31;75.97;100823.16;6249021;22;20192;-70
2023/03/05 02:00:43;;;;;;;2.45;1.23;;;;;;;2.24;73.68;100821.22;6249450;22;20553;-71
2023/03/05 02:03:14;;;;;;;8.73;2.50;;;;;;;2.16;74.05;100817.47;6249367;22;20213;-72
2023/03/05 02:05:44;;;;;;;6.97;2.10;;;;;;;2.13;74.35;100815.09;6249512;22;20168;-70
2023/03/05 02:08:15;;;;;;;3.95;1.50;;;;;;;2.18;74.43;100817.31;6249051;22;20180;-70
2023/03/05 02:10:48;;;;;;;2.92;1.40;;;;;;;2.24;73.49;100810.53;6249703;22;20401;-71
2023/03/05 02:13:21;;;;;;;6.00;2.08;;;;;;;2.06;73.00;100806.00;6252174;22;20163;-71
2023/03/05 02:15:51;;;;;;;9.05;2.83;;;;;;;2.10;73.12;100823.41;6251065;22;20167;-70
2023/03/05 02:18:22;;;;;;;6.00;1.92;;;;;;;1.96;72.60;100805.22;6277137;22;20195;-70
2023/03/05 02:20:53;;;;;;;3.90;1.38;;;;;;;1.94;71.72;100807.19;6250089;22;20171;-73
2023/03/05 02:23:26;;;;;;;7.80;1.88;;;;;;;1.93;71.33;100799.34;6250368;22;20484;-70
2023/03/05 02:25:56;;;;;;;12.02;1.63;;;;;;;1.97;71.13;100801.56;6250311;22;20164;-71
2023/03/05 02:28:30;;;;;;;5.25;2.35;;;;;;;2.00;70.59;100798.59;6250909;22;20662;-71
2023/03/05 02:31:17;;;;;;;4.60;1.73;;;;;;;2.03;71.11;100800.16;6249635;22;20266;-71
2023/03/05 02:33:46;;;;;;;4.15;1.75;;;;;;;1.98;70.02;100783.75;6249542;22;20168;-70
2023/03/05 02:36:16;;;;;;;2.60;1.15;;;;;;;1.98;70.26;100784.59;6249721;22;20256;-69
2023/03/05 02:38:47;;;;;;;6.40;2.05;;;;;;;2.03;71.03;100787.63;6277976;22;20180;-70
2023/03/05 02:41:17;;;;;;;7.60;2.35;;;;;;;2.03;70.00;100782.28;6250363;22;20617;-70
2023/03/05 02:43:46;;;;;;;11.90;2.17;;;;;;;1.96;70.61;100781.22;6250504;22;20167;-71
2023/03/05 02:46:16;;;;;;;4.05;2.17;;;;;;;2.05;70.07;100777.63;6250146;22;20175;-70
2023/03/05 02:48:45;;;;;;;5.20;1.90;;;;;;;2.13;71.16;100775.03;6250514;22;20214;-69
2023/03/05 02:51:16;;;;;;;4.20;1.45;;;;;;;2.12;70.79;100778.72;6249922;22;20171;-70
2023/03/05 02:53:47;;;;;;;5.40;2.00;;;;;;;2.00;70.67;100766.56;6249314;22;20216;-70
2023/03/05 02:56:17;;;;;;;9.20;1.80;;;;;;;1.88;71.06;100761.59;6249553;22;20163;-69
2023/03/05 02:58:46;;;;;;;3.15;1.75;;;;;;;1.91;71.08;100759.47;6249936;22;20191;-70
2023/03/05 03:01:16;;;;;;;9.80;1.30;;;;;;;1.91;70.99;100759.47;6250792;22;20171;-70
2023/03/05 03:03:45;;;;;;;2.88;1.33;;;;;;;1.79;71.00;100759.84;6250491;22;20167;-71
2023/03/05 03:06:14;;;;;;;5.32;1.40;;;;;;;1.91;71.49;100754.13;6278027;22;20174;-71
2023/03/05 03:08:43;;;;;;;10.88;2.25;;;;;;;2.01;70.85;100754.06;6250690;22;20432;-70
2023/03/05 03:11:14;;;;;;;6.45;1.90;;;;;;;2.00;70.60;100753.22;6250670;22;20171;-71
2023/03/05 03:13:43;;;;;;;4.07;2.30;;;;;;;2.03;70.96;100752.09;6278693;22;20584;-70
2023/03/05 03:16:14;;;;;;;5.32;1.52;;;;;;;2.06;70.68;100749.97;6250389;22;20172;-70
2023/03/05 03:18:46;;;;;;;4.00;1.90;;;;;;;2.07;71.28;100748.97;6250601;22;20188;-69
2023/03/05 03:21:21;;;;;;;4.72;1.42;;;;;;;2.01;70.79;100749.56;6255227;22;20180;-70
2023/03/05 03:23:50;;;;;;;3.00;1.40;;;;;;;2.04;70.92;100743.91;6276676;22;20169;-71
2023/03/05 03:26:21;;;;;;;9.55;1.15;;;;;;;2.11;71.10;100737.00;6277095;22;20156;-71
2023/03/05 03:28:50;;;;;;;4.93;2.15;;;;;;;2.04;70.75;100733.25;6277628;22;20155;-69
2023/03/05 03:31:19;;;;;;;4.43;1.77;;;;;;;2.10;71.17;100727.31;6290544;22;20243;-70
2023/03/05 03:33:48;;;;;;;9.20;1.95;;;;;;;2.12;71.25;100730.69;6280420;22;20164;-71
2023/03/05 03:36:18;;;;;;;2.20;1.55;;;;;;;2.32;71.10;100735.88;6279249;22;20159;-72
2023/03/05 03:38:47;;;;;;;3.90;1.42;;;;;;;2.22;70.58;100719.09;6275102;22;20195;-70
2023/03/05 03:41:18;;;;;;;7.80;1.50;;;;;;;2.26;70.99;100725.78;6274150;22;20168;-70
2023/03/05 03:43:49;;;;;;;8.43;2.97;;;;;;;2.12;70.11;100729.84;6274342;22;20171;-71
2023/03/05 03:46:18;;;;;;;2.55;1.60;;;;;;;2.13;70.32;100728.84;6274777;22;20171;-70
2023/03/05 03:48:51;;;;;;;4.70;1.88;;;;;;;2.19;71.11;100725.56;6274855;22;20274;-69
2023/03/05 03:51:20;;;;;;;7.78;1.83;;;;;;;2.13;70.91;100724.31;6274971;22;20164;-70
2023/03/05 03:53:49;;;;;;;4.68;1.30;;;;;;;2.05;71.89;100718.91;6277225;22;20163;-70
2023/03/05 03:56:18;;;;;;;3.17;1.75;;;;;;;2.01;72.29;100712.22;6280603;22;20168;-68
2023/03/05 03:58:50;;;;;;;6.53;1.58;;;;;;;2.05;72.65;100707.41;6283581;22;20222;-68
2023/03/05 04:01:20;;;;;;;9.75;2.10;;;;;;;1.98;73.01;100706.34;6280259;22;20175;-68
2023/03/05 04:03:49;;;;;;;5.57;2.72;;;;;;;1.93;73.46;100705.97;6279244;22;20203;-69
2023/03/05 04:06:19;;;;;;;4.50;1.67;;;;;;;1.84;74.05;100706.88;6276540;22;20612;-70
2023/03/05 04:08:48;;;;;;;2.42;1.30;;;;;;;1.81;74.33;100713.31;6276152;22;20513;-68
2023/03/05 04:11:18;;;;;;;13.20;2.72;;;;;;;1.79;75.55;100695.81;6275929;22;20175;-70
2023/03/05 04:13:49;;;;;;;4.22;1.58;;;;;;;1.75;75.70;100689.91;6276140;22;20197;-69
2023/03/05 04:16:19;;;;;;;3.90;2.13;;;;;;;1.76;75.53;100699.59;6276270;22;20167;-70
2023/03/05 04:18:48;;;;;;;3.47;1.50;;;;;;;1.68;75.92;100684.34;6275997;22;20207;-69
2023/03/05 04:21:17;;;;;;;6.38;1.92;;;;;;;1.59;76.51;100695.06;6275823;22;20252;-69
2023/03/05 04:23:47;;;;;;;2.55;1.55;;;;;;;1.62;76.98;100684.94;6275958;22;20253;-70
2023/03/05 04:26:16;;;;;;;4.50;1.92;;;;;;;1.54;77.55;100679.53;6275615;22;20179;-69
2023/03/05 04:28:49;;;;;;;5.32;2.55;;;;;;;1.49;78.18;100680.97;6275676;22;20531;-70
2023/03/05 04:31:19;;;;;;;5.07;2.22;;;;;;;1.48;78.54;100692.59;6275930;22;20167;-70
2023/03/05 04:33:48;;;;;;;10.38;1.88;;;;;;;1.44;78.90;100685.91;6275862;22;20174;-70
2023/03/05 04:36:17;;;;;;;5.63;2.00;;;;;;;1.47;79.05;100677.59;6276153;22;20171;-69
2023/03/05 04:38:47;;;;;;;5.88;1.20;;;;;;;1.36;79.52;100675.09;6277231;22;20184;-68
2023/03/05 04:41:16;;;;;;;7.05;1.52;;;;;;;1.33;79.91;100675.41;6275972;22;20509;-69
2023/03/05 04:43:45;;;;;;;2.35;1.58;;;;;;;1.26;80.56;100668.00;6275645;22;20612;-69
2023/03/05 04:46:15;;;;;;;5.70;1.98;;;;;;;1.23;81.28;100678.13;6276122;22;20167;-70
2023/03/05 04:48:45;;;;;;;4.93;1.83;;;;;;;1.23;81.20;100662.13;6275736;22;20195;-69
2023/03/05 04:51:14;;;;;;;6.63;2.15;;;;;;;1.25;81.41;100661.03;6275781;22;20270;-70
2023/03/05 04:53:43;;;;;;;3.80;1.15;;;;;;;1.24;81.58;100670.00;6276313;22;20200;-70
2023/03/05 04:56:12;;;;;;;3.55;1.55;;;;;;;1.26;81.77;100662.66;6276215;22;20220;-69
2023/03/05 04:58:41;;;;;;;8.93;1.85;;;;;;;1.33;81.73;100667.41;6275858;22;20241;-69
2023/03/05 05:01:10;;;;;;;11.90;2.75;;;;;;;1.26;82.08;100661.84;6276136;22;20174;-70
2023/03/05 05:03:41;;;;;;;13.65;2.20;;;;;;;1.39;81.90;100666.84;6276292;22;20213;-69
2023/03/05 05:06:10;;;;;;;9.38;1.33;;;;;;;1.27;82.23;100659.03;6276415;22;20164;-70
2023/03/05 05:08:39;;;;;;;3.28;1.30;;;;;;;1.33;82.92;100667.41;6275925;22;20547;-70
2023/03/05 05:11:12;;;;;;;3.47;1.20;;;;;;;1.24;82.63;100656.66;6275984;22;20221;-70
2023/03/05 05:13:41;;;;;;;3.30;2.13;;;;;;;1.22;82.61;100658.63;6276122;22;20167;-71
2023/03/05 05:16:11;;;;;;;5.80;3.08;;;;;;;1.23;82.56;100657.66;6275835;22;20246;-69
2023/03/05 05:18:41;;;;;;;3.42;1.50;;;;;;;1.28;82.51;100660.72;6275623;22;20640;-68
2023/03/05 05:21:11;;;;;;;6.28;1.70;;;;;;;1.25;82.94;100660.19;6277083;22;20651;-69
2023/03/05 05:23:41;;;;;;;2.78;1.60;;;;;;;1.20;83.08;100657.13;6250063;22;20631;-70
2023/03/05 05:26:13;;;;;;;2.15;1.50;;;;;;;1.10;83.65;100659.81;6276501;22;20167;-68
2023/03/05 05:28:43;;;;;;;7.80;1.83;;;;;;;1.14;83.94;100655.88;6249788;22;20211;-68
2023/03/05 05:31:14;;;;;;;1.20;1.10;;;;;;;1.10;84.09;100657.16;6249687;22;20163;-71
2023/03/05 05:33:45;;;;;;;6.00;2.45;;;;;;;1.03;84.52;100661.38;6277146;22;20227;-69
2023/03/05 05:36:18;;;;;;;7.07;1.60;;;;;;;0.96;85.25;100654.97;6249913;22;20160;-69
2023/03/05 05:38:48;;;;;;;9.50;3.13;;;;;;;0.91;85.58;100651.91;6249240;22;20195;-69
2023/03/05 05:41:18;;;;;;;4.53;1.88;;;;;;;0.91;85.73;100651.91;6249390;22;20636;-69
2023/03/05 05:43:48;;;;;;;4.45;2.15;;;;;;;0.94;86.28;100661.41;6249382;22;20189;-69
2023/03/05 05:46:18;;;;;;;9.70;1.75;;;;;;;0.95;86.00;100663.94;6277744;22;20248;-69
2023/03/05 05:48:50;;;;;;;11.25;2.35;;;;;;;0.96;85.93;100664.78;6251631;22;20191;-70
2023/03/05 05:51:21;;;;;;;6.32;1.60;;;;;;;0.97;86.23;100661.97;6250919;22;20159;-70
2023/03/05 05:53:51;;;;;;;8.43;1.58;;;;;;;0.97;86.13;100664.63;6250158;22;20244;-69
2023/03/05 05:56:20;;;;;;;8.68;2.50;;;;;;;1.01;86.03;100659.88;6250639;22;20642;-68
2023/03/05 05:58:50;;;;;;;5.80;1.45;;;;;;;1.13;86.13;100664.00;6250628;22;20198;-67
2023/03/05 06:01:22;;;;;;;12.57;1.63;;;;;;;1.17;85.81;100663.56;6250325;22;20600;-69
2023/03/05 06:03:53;;;;;;;2.35;1.27;;;;;;;1.17;85.50;100666.22;6250376;22;20612;-68
2023/03/05 06:06:24;;;;;;;4.60;1.15;;;;;;;1.22;85.68;100663.97;6250817;22;20179;-70
2023/03/05 06:08:53;;;;;;;4.90;1.95;;;;;;;1.28;85.09;100659.88;6253872;22;20201;-70
2023/03/05 06:11:23;;;;;;;9.63;1.77;;;;;;;1.26;85.26;100661.84;6250523;22;20166;-70
2023/03/05 06:13:52;;;;;;;4.30;1.80;;;;;;;1.23;85.38;100657.66;6250363;22;20201;-69
2023/03/05 06:16:23;;;;;;;5.05;2.00;;;;;;;1.23;85.38;100657.66;6250214;22;20201;-70
2023/03/05 06:18:54;;;;;;;5.57;1.92;;;;;;;1.31;85.54;100654.22;6277779;22;20152;-69
2023/03/05 06:21:24;;;;;;;3.05;1.70;;;;;;;1.29;85.39;100654.41;6277699;22;20187;-70
2023/03/05 06:23:53;;;;;;;6.72;2.25;;;;;;;1.39;85.48;100650.84;6279580;22;20541;-69
2023/03/05 06:26:23;;;;;;;5.05;1.67;;;;;;;1.41;84.67;100643.50;6249487;22;20163;-69
2023/03/05 06:28:52;;;;;;;3.67;1.85;;;;;;;1.48;84.62;100652.59;6250901;22;20554;-68
2023/03/05 06:31:24;;;;;;;5.57;1.90;;;;;;;1.52;84.75;100656.66;6278172;22;20158;-70
2023/03/05 06:34:05;;;;;;;9.50;2.40;;;;;;;1.69;83.97;100658.53;6253115;22;20215;-69
2023/03/05 06:36:34;;;;;;;4.32;2.60;;;;;;;1.83;83.70;100654.47;6252852;22;20684;-70
2023/03/05 06:39:04;;;;;;;5.88;1.55;;;;;;;1.91;83.24;100651.88;6251439;22;20493;-70
2023/03/05 06:41:33;;;;;;;2.97;1.50;;;;;;;2.15;82.58;100650.28;6251173;22;20179;-70
2023/03/05 06:44:06;;;;;;;5.55;2.40;;;;;;;2.28;82.04;100654.38;6250482;22;20198;-69
2023/03/05 06:46:38;;;;;;;3.95;1.48;;;;;;;2.44;81.71;100658.03;6249682;22;20235;-69
2023/03/05 06:49:08;;;;;;;3.50;1.40;;;;;;;2.40;80.39;100653.16;6249381;22;20163;-70
2023/03/05 06:51:39;;;;;;;3.75;1.63;;;;;;;2.29;80.59;100648.03;6249917;22;20551;-70
2023/03/05 06:54:11;;;;;;;9.85;2.28;;;;;;;2.31;80.58;100662.09;6252983;22;20167;-69
2023/03/05 06:56:42;;;;;;;6.57;1.85;;;;;;;2.36;80.72;100657.13;6257109;22;20163;-70
2023/03/05 06:59:12;;;;;;;3.45;1.77;;;;;;;2.36;80.02;100654.47;6256595;22;20164;-68
2023/03/05 07:01:41;;;;;;;7.07;1.58;;;;;;;2.32;79.56;100650.41;6251639;22;20278;-70
2023/03/05 07:04:12;;;;;;;7.20;2.50;;;;;;;2.52;79.31;100650.06;6249398;22;20172;-70
2023/03/05 07:06:42;;;;;;;5.00;2.08;;;;;;;2.50;78.77;100649.38;6248862;22;20226;-71
2023/03/05 07:09:13;;;;;;;2.92;2.13;;;;;;;2.60;77.68;100649.28;6249269;22;20172;-70
2023/03/05 07:11:43;;;;;;;4.30;1.30;;;;;;;2.68;77.55;100657.34;6249106;22;20177;-71
2023/03/05 07:14:12;;;;;;;3.20;1.80;;;;;;;2.64;77.56;100650.66;6249390;22;20168;-69
2023/03/05 07:16:41;;;;;;;5.25;2.90;;;;;;;2.64;77.18;100666.69;6249602;22;20164;-70
2023/03/05 07:19:12;;;;;;;6.43;1.92;;;;;;;2.65;76.64;100663.03;6249328;22;20632;-69
2023/03/05 07:21:42;;;;;;;3.47;1.60;;;;;;;2.57;76.58;100665.63;6259653;22;20278;-70
2023/03/05 07:24:13;;;;;;;3.25;1.70;;;;;;;2.70;76.87;100671.41;6274567;22;20168;-68
2023/03/05 07:26:42;;;;;;;7.32;1.58;;;;;;;2.73;75.96;100668.41;6276131;22;20201;-69
2023/03/05 07:29:12;;;;;;;2.40;1.75;;;;;;;2.67;76.03;100665.50;6278136;22;20189;-68
2023/03/05 07:31:41;;;;;;;4.78;1.33;;;;;;;2.57;75.90;100666.47;6278627;22;20545;-69
2023/03/05 07:34:12;;;;;;;3.15;2.47;;;;;;;2.48;76.14;100664.72;6276655;22;20171;-70
2023/03/05 07:36:41;;;;;;;14.68;3.00;;;;;;;2.54;76.09;100681.97;6276699;22;20171;-70
2023/03/05 07:39:11;;;;;;;5.05;2.60;;;;;;;2.60;75.74;100666.16;6279629;22;20171;-70
2023/03/05 07:41:41;;;;;;;4.25;1.65;;;;;;;2.66;75.22;100664.69;6281848;22;20241;-70
2023/03/05 07:44:10;;;;;;;1.95;1.00;;;;;;;2.48;75.82;100672.72;6276577;22;20171;-69
2023/03/05 07:46:40;;;;;;;3.95;1.52;;;;;;;2.75;75.41;100662.91;6277147;22;20159;-70
2023/03/05 07:49:09;;;;;;;6.03;1.95;;;;;;;2.85;75.50;100672.50;6278901;22;20182;-71
2023/03/05 07:51:41;;;;;;;6.28;1.77;;;;;;;3.08;74.80;100671.94;6276968;22;20504;-70
2023/03/05 07:54:11;;;;;;;7.22;2.65;;;;;;;2.85;74.20;100664.50;6278273;22;20601;-70
2023/03/05 07:56:40;;;;;;;3.30;1.90;;;;;;;2.73;73.74;100683.59;6277367;22;20550;-71
2023/03/05 07:59:12;;;;;;;4.88;1.20;;;;;;;2.76;74.24;100665.41;6279471;22;20160;-69
2023/03/05 08:01:41;;;;;;;3.42;1.50;;;;;;;2.94;74.46;100674.22;6277519;22;20674;-71
2023/03/05 08:04:11;;;;;;;3.38;1.42;;;;;;;2.81;74.20;100662.28;6285408;22;20163;-70
2023/03/05 08:06:42;;;;;;;8.45;1.92;;;;;;;3.20;73.86;100662.63;6281204;22;20538;-70
2023/03/05 08:09:11;;;;;;;9.10;2.30;;;;;;;3.28;73.09;100676.06;6280695;22;20156;-70
2023/03/05 08:11:40;;;;;;;10.80;2.28;;;;;;;3.27;72.08;100672.56;6279950;22;20164;-70
2023/03/05 08:14:10;;;;;;;5.18;1.90;;;;;;;3.19;71.96;100663.66;6281846;22;20202;-70
2023/03/05 08:16:40;;;;;;;2.80;1.40;;;;;;;3.38;71.41;100658.91;6280728;22;20172;-71
2023/03/05 08:19:11;;;;;;;2.97;1.05;;;;;;;3.14;70.10;100652.59;6282048;22;20148;-71
2023/03/05 08:21:42;;;;;;;4.20;1.50;;;;;;;3.20;70.52;100658.13;6282990;22;20196;-70
2023/03/05 08:24:12;;;;;;;9.82;1.95;;;;;;;3.19;70.91;100655.63;6256358;22;20213;-71
2023/03/05 08:26:42;;;;;;;3.75;1.10;;;;;;;3.09;70.62;100654.91;6256398;22;20167;-71
2023/03/05 08:29:11;;;;;;;9.63;2.22;;;;;;;3.29;70.88;100656.34;6254815;22;20171;-69
2023/03/05 08:31:44;;;;;;;3.70;2.67;;;;;;;3.43;69.07;100655.75;6254414;22;20167;-70
2023/03/05 08:34:13;;;;;;;2.55;1.45;;;;;;;3.44;68.78;100644.00;6283929;22;20535;-70
2023/03/05 08:36:58;;;;;;;6.45;2.25;;;;;;;3.38;67.20;100652.72;6254877;22;20171;-70
2023/03/05 08:39:32;;;;;;;4.25;2.08;;;;;;;3.43;67.86;100637.84;6255834;22;20243;-70
2023/03/05 08:42:01;;;;;;;8.15;2.15;;;;;;;3.42;67.81;100638.84;6255025;22;20176;-70
2023/03/05 08:44:31;;;;;;;4.53;1.38;;;;;;;3.23;67.79;100630.25;6254345;22;20164;-70
2023/03/05 08:47:00;;;;;;;2.65;1.30;;;;;;;3.14;67.64;100636.56;6252867;22;20184;-69
2023/03/05 08:49:29;;;;;;;4.00;1.55;;;;;;;3.31;66.70;100633.78;6254362;22;20540;-70
2023/03/05 08:52:00;;;;;;;6.57;1.88;;;;;;;3.78;65.44;100609.13;6252913;22;20168;-71
2023/03/05 08:54:29;;;;;;;4.78;2.63;;;;;;;3.95;63.92;100616.19;6253142;22;20168;-70
2023/03/05 08:56:59;;;;;;;4.03;1.48;;;;;;;4.03;63.71;100612.69;6252168;22;20187;-72
2023/03/05 08:59:28;;;;;;;2.70;1.00;;;;;;;4.07;63.48;100616.69;6253129;22;20639;-70
2023/03/05 09:02:01;;;;;;;3.88;1.80;;;;;;;3.76;62.69;100617.34;6279255;22;20176;-70
2023/03/05 09:04:30;;;;;;;8.95;1.30;;;;;;;3.88;62.62;100618.69;6252700;22;20242;-71
2023/03/05 09:07:01;;;;;;;4.97;2.58;;;;;;;3.93;61.91;100610.16;6253151;22;20243;-71
2023/03/05 09:09:31;;;;;;;5.07;1.50;;;;;;;3.87;61.20;100611.66;6252545;22;20555;-70
2023/03/05 09:12:00;;;;;;;8.05;1.35;;;;;;;4.54;59.98;100616.84;6279450;22;20483;-71
2023/03/05 09:14:30;;;;;;;2.97;1.75;;;;;;;4.75;58.95;100617.13;6253193;22;20167;-70
2023/03/05 09:16:59;;;;;;;3.88;1.20;;;;;;;4.97;58.17;100604.84;6257604;22;20195;-70
2023/03/05 09:19:28;;;;;;;6.32;2.03;;;;;;;4.82;57.72;100627.00;6280871;22;20170;-72
2023/03/05 09:21:57;;;;;;;3.33;1.00;;;;;;;4.39;58.07;100603.31;6266800;22;20202;-70
2023/03/05 09:24:28;;;;;;;2.80;1.42;;;;;;;4.54;57.73;100611.50;6278203;22;20168;-72
2023/03/05 09:26:59;;;;;;;4.47;1.95;;;;;;;4.25;57.60;100587.94;6277877;22;20246;-70
2023/03/05 09:29:30;;;;;;;2.40;1.60;;;;;;;3.99;58.99;100603.31;6277383;22;20159;-72
2023/03/05 09:31:59;;;;;;;12.63;2.67;;;;;;;3.85;59.35;100594.94;6277091;22;20167;-72
2023/03/05 09:34:28;;;;;;;2.55;1.13;;;;;;;3.51;61.14;100591.53;6278116;22;20245;-69
2023/03/05 09:36:57;;;;;;;4.25;1.35;;;;;;;3.83;61.30;100596.09;6277529;22;20195;-70
2023/03/05 09:39:28;;;;;;;4.30;1.40;;;;;;;3.93;61.30;100591.44;6278348;22;20574;-69
2023/03/05 09:42:28;;;;;;;2.55;1.20;;;;;;;3.72;61.54;100597.28;6278741;22;20183;-69
2023/03/05 09:45:08;;;;;;;1.95;1.75;;;;;;;3.74;62.13;100589.06;6279713;22;20546;-68
2023/03/05 09:47:51;;;;;;;8.13;2.25;;;;;;;3.67;62.58;100580.88;6277334;22;20240;-69
2023/03/05 09:50:32;;;;;;;3.00;1.50;;;;;;;4.07;62.44;100587.25;6278705;22;20164;-72
2023/03/05 09:53:18;;;;;;;4.13;1.88;;;;;;;4.28;60.20;100584.91;6283342;22;20160;-70
2023/03/05 09:55:53;;;;;;;4.40;1.85;;;;;;;4.37;59.23;100594.59;6277271;22;20174;-69
2023/03/05 09:58:31;;;;;;;2.20;1.45;;;;;;;4.06;58.81;100588.28;6278891;22;20187;-69
2023/03/05 10:01:04;;;;;;;8.40;1.48;;;;;;;4.05;59.50;100583.91;6279338;22;20168;-69
2023/03/05 10:03:42;;;;;;;1.60;1.40;;;;;;;4.47;58.80;100587.22;6276012;22;20184;-70
2023/03/05 10:06:20;;;;;;;2.03;1.35;;;;;;;4.42;59.06;100584.22;6279963;22;20148;-69
2023/03/05 10:08:55;;;;;;;2.90;1.35;;;;;;;4.29;58.59;100586.56;6285361;22;20209;-70
2023/03/05 10:11:44;;;;;;;7.07;1.75;;;;;;;4.24;58.11;100572.84;6281852;22;20538;-68
2023/03/05 10:14:19;;;;;;;6.65;1.67;;;;;;;4.40;58.09;100580.03;6278029;22;20536;-69
2023/03/05 10:17:17;;;;;;;3.78;1.55;;;;;;;4.14;58.43;100574.88;6275626;22;20191;-68
2023/03/05 10:20:04;;;;;;;6.28;1.50;;;;;;;4.04;57.86;100576.88;6278516;22;20168;-68
2023/03/05 10:22:42;;;;;;;5.97;1.88;;;;;;;4.38;57.58;100570.31;6276695;22;20223;-68
2023/03/05 10:25:20;;;;;;;3.38;1.35;;;;;;;4.42;57.36;100568.13;6274933;22;20256;-68
2023/03/05 10:27:55;;;;;;;5.93;2.10;;;;;;;4.66;57.68;100568.06;6274905;22;20193;-68
2023/03/05 10:30:54;;;;;;;8.18;2.20;;;;;;;4.56;57.60;100562.06;6274681;22;20691;-67
2023/03/05 10:33:30;;;;;;;1.77;1.55;;;;;;;4.34;58.53;100560.13;6274614;22;20593;-68
2023/03/05 10:36:32;;;;;;;8.50;1.63;;;;;;;4.22;57.78;100558.78;6276388;22;20175;-70
2023/03/05 10:39:19;;;;;;;4.60;2.10;;;;;;;4.23;57.80;100560.47;6266182;22;20541;-68
2023/03/05 10:42:01;;;;;;;5.25;2.50;;;;;;;4.23;59.24;100558.63;6275338;22;20168;-68
2023/03/05 10:44:40;;;;;;;3.22;1.48;;;;;;;3.92;60.92;100553.09;6275176;22;20164;-69
2023/03/05 10:47:16;;;;;;;2.83;1.63;;;;;;;4.25;61.42;100553.94;6274628;22;20191;-67
2023/03/05 10:49:50;;;;;;;3.58;1.85;;;;;;;4.53;62.01;100548.19;6276466;22;20529;-69
2023/03/05 10:52:25;;;;;;;6.97;2.47;;;;;;;4.33;61.20;100548.56;6274644;22;20155;-68
2023/03/05 10:59:15;;;;;;;2.92;1.20;;;;;;;4.29;60.44;100539.19;6275863;22;20261;-67
2023/03/05 11:02:03;;;;;;;4.00;1.50;;;;;;;4.67;59.81;100547.47;6274299;22;20597;-68
2023/03/05 11:04:40;;;;;;;2.85;2.15;;;;;;;4.15;60.54;100552.44;6275565;22;20202;-69
2023/03/05 11:07:38;;;;;;;2.00;1.63;;;;;;;4.21;61.79;100541.06;6273323;22;20211;-68
2023/03/05 11:10:17;;;;;;;3.40;2.08;;;;;;;4.69;60.62;100540.94;6273703;22;20562;-69
2023/03/05 11:12:47;;;;;;;5.70;2.40;;;;;;;4.70;60.33;100553.31;6274312;22;20600;-69
2023/03/05 11:15:36;;;;;;;4.68;2.55;;;;;;;4.25;61.03;100537.88;6274017;22;20194;-69
2023/03/05 11:18:20;;;;;;;6.90;1.98;;;;;;;4.59;61.13;100537.63;6274440;22;20194;-69
2023/03/05 11:20:49;;;;;;;5.97;1.90;;;;;;;4.79;60.67;100533.50;6274412;22;20264;-67
2023/03/05 11:23:23;;;;;;;4.20;2.00;;;;;;;4.49;60.98;100528.94;6224073;22;20191;-68
2023/03/05 11:25:59;;;;;;;2.80;1.50;;;;;;;4.45;61.87;100534.81;6248641;22;20164;-69
2023/03/05 11:28:32;;;;;;;6.75;2.42;;;;;;;4.18;63.14;100530.66;6248614;22;20191;-69
2023/03/05 11:31:19;;;;;;;5.85;1.60;;;;;;;4.40;63.32;100523.78;6248891;22;20243;-69
2023/03/05 11:33:58;;;;;;;4.10;1.52;;;;;;;4.59;62.71;100521.56;6248759;22;20246;-69
2023/03/05 11:36:30;;;;;;;3.00;2.03;;;;;;;4.95;62.45;100523.72;6275495;22;20156;-67
2023/03/05 11:39:08;;;;;;;4.70;2.13;;;;;;;4.98;61.37;100518.03;6275434;22;20152;-69
2023/03/05 11:41:41;;;;;;;5.40;2.95;;;;;;;4.30;62.75;100537.34;6248595;22;20167;-70
2023/03/05 11:44:13;;;;;;;4.40;2.63;;;;;;;4.56;63.67;100516.50;6248634;22;20179;-67
2023/03/05 11:46:47;;;;;;;10.35;3.15;;;;;;;4.23;64.26;100518.44;6248357;22;20213;-69
2023/03/05 11:49:24;;;;;;;2.53;1.52;;;;;;;4.39;63.87;100512.22;6248480;22;20218;-69
2023/03/05 11:52:02;;;;;;;3.28;1.60;;;;;;;4.26;64.39;100514.59;6275797;22;20164;-68
2023/03/05 11:54:39;;;;;;;4.60;1.98;;;;;;;4.25;64.17;100502.22;6248717;22;20492;-67
2023/03/05 11:57:14;;;;;;;3.17;1.70;;;;;;;4.33;64.04;100499.50;6249583;22;20194;-68
2023/03/05 11:59:44;;;;;;;3.53;2.17;;;;;;;4.39;63.02;100501.50;6249338;22;20225;-67